Impacts TAF Board
For situational awareness. Not to be used for flight planning purposes.
IDs:

KBOS - Boston/Logan Intl, MA, US

Issued at 2335 UTC 05 Dec 2019
Updated at 0103 UTC 06 Dec 2019
Potential Impact None Slight Moderate High
Time<<07/02Z 07/03Z 07/04Z 07/05Z 07/06Z 07/07Z 07/08Z 07/09Z 07/10Z 07/11Z 07/12Z 07/13Z 07/14Z
Type PRVL PRVL PRVL PRVL
VIS 3 >6 >6 >6
CIG 15 25 25 25
Cover OVC BKN BKN BKN
FltCat MVFR MVFR MVFR MVFR
WX -SN BR -- -- --
WDir 260 310 310 310
WSpd 10 8 8 8
WGst -- -- -- --
Raw TAF
KBOS 052335Z 0600/0706 28012G19KT P6SM SCT050
  FM061000 27010KT P6SM SKC
  FM061400 25010KT P6SM BKN080
  FM062000 23010KT 2SM -SN BR FEW008 OVC012
  FM062200 26010KT 3SM -SN BR OVC015
  FM070300 31008KT P6SM BKN025


METAR Board
Radar Display
Forecast Discussion
For situational awareness. Not to be used for flight planning purposes.